Overview Statistics Trail Chart Weather Telemetry Raw packets
 

This is the latest recevied weather packets stored in our database for station/object DB7GV-8. If no packets are shown the sender has not sent any weather packets the latest 10 day(s).

<< 32 33 34 35 36 >>
Time Temp. Humidity Pressure Rain* Wind** Luminosity Snow
1776929934 38.33° C 13% 1026.2 hPa - - - -
1776929028 33.33° C 17% 1026.3 hPa - - - -
1776928123 31.11° C 17% 1026.3 hPa - - - -
1776927217 33.89° C 18% 1026.6 hPa - - - -
1776926311 30° C 30% 1026.7 hPa - - - -
1776924501 3.33° C 70% 1026.2 hPa - - - -
1776923595 2.78° C 70% 1026.1 hPa - - - -
1776922690 2.78° C 70% 1026.1 hPa - - - -
1776921784 2.78° C 70% 1025.9 hPa - - - -
1776920879 2.22° C 71% 1025.9 hPa - - - -
1776919973 2.22° C 70% 1025.6 hPa - - - -
1776919068 2.22° C 70% 1025.5 hPa - - - -
1776918163 2.22° C 70% 1025.3 hPa - - - -
1776917257 2.22° C 70% 1025.3 hPa - - - -
1776916352 2.22° C 69% 1025.2 hPa - - - -
1776915447 2.78° C 69% 1025.1 hPa - - - -
1776914541 2.78° C 68% 1025 hPa - - - -
1776913635 2.78° C 68% 1025 hPa - - - -
1776912730 3.33° C 67% 1025 hPa - - - -
1776911825 3.33° C 67% 1025 hPa - - - -
1776910919 3.33° C 66% 1025 hPa - - - -
1776910014 3.33° C 66% 1025 hPa - - - -
1776909109 3.33° C 65% 1024.9 hPa - - - -
1776908204 3.33° C 65% 1024.9 hPa - - - -
1776907298 3.89° C 64% 1024.8 hPa - - - -

* Rain since midnight (hover to see other rain measurements)
** Current wind speed in m/s (hover to see current wind gust speed)